createdAt,value
2023-09-07T00:00:50.358Z,14.80
2023-09-07T00:03:42.724Z,14.74
2023-09-07T00:06:13.331Z,14.66
2023-09-07T00:08:43.196Z,14.59
2023-09-07T00:11:14.985Z,14.52
2023-09-07T00:13:44.623Z,14.48
2023-09-07T00:16:14.814Z,14.13
2023-09-07T00:18:44.498Z,14.43
2023-09-07T00:21:14.545Z,14.34
2023-09-07T00:23:44.307Z,14.35
2023-09-07T00:26:15.860Z,14.34
2023-09-07T00:28:45.822Z,14.30
2023-09-07T00:31:16.064Z,14.25
2023-09-07T00:33:44.772Z,14.22
2023-09-07T00:36:14.906Z,13.88
2023-09-07T00:38:44.630Z,14.08
2023-09-07T00:41:16.202Z,14.03
2023-09-07T00:43:45.967Z,13.95
2023-09-07T00:46:16.092Z,14.01
2023-09-07T00:48:46.081Z,14.05
2023-09-07T00:51:15.974Z,14.04
2023-09-07T00:53:45.880Z,13.96
2023-09-07T00:56:18.541Z,13.93
2023-09-07T00:58:50.617Z,13.92
2023-09-07T01:01:20.800Z,13.91
2023-09-07T01:03:50.858Z,13.83
2023-09-07T01:06:23.592Z,13.78
2023-09-07T01:08:54.296Z,13.78
2023-09-07T01:11:26.034Z,13.77
2023-09-07T01:13:56.733Z,13.78
2023-09-07T01:16:27.178Z,13.71
2023-09-07T01:18:56.889Z,13.63
2023-09-07T01:21:26.857Z,13.65
2023-09-07T01:23:58.622Z,13.67
2023-09-07T01:26:28.731Z,13.63
2023-09-07T01:28:58.909Z,13.60
2023-09-07T01:31:29.045Z,13.58
2023-09-07T01:33:58.989Z,13.68
2023-09-07T01:36:29.125Z,13.76
2023-09-07T01:39:00.282Z,13.77
2023-09-07T01:41:30.629Z,13.79
2023-09-07T01:44:00.529Z,13.77
2023-09-07T01:46:30.629Z,13.64
2023-09-07T01:49:00.349Z,13.75
2023-09-07T01:51:30.569Z,13.76
2023-09-07T01:54:01.739Z,13.71
2023-09-07T01:56:32.095Z,13.73
2023-09-07T01:59:01.874Z,13.76
2023-09-07T02:01:33.075Z,13.72
2023-09-07T02:04:02.707Z,13.71
2023-09-07T02:06:32.594Z,13.78
2023-09-07T02:09:05.787Z,13.79
2023-09-07T02:11:35.937Z,13.79
2023-09-07T02:14:05.757Z,13.80
2023-09-07T02:16:35.978Z,13.81
2023-09-07T02:19:06.483Z,13.73
2023-09-07T02:21:36.659Z,13.79
2023-09-07T02:24:08.392Z,13.83
2023-09-07T02:26:45.180Z,13.89
2023-09-07T02:29:14.860Z,13.90
2023-09-07T02:31:45.075Z,13.89
2023-09-07T02:34:14.806Z,13.94
2023-09-07T02:36:44.861Z,13.99
2023-09-07T02:39:16.006Z,14.07
2023-09-07T02:41:46.913Z,14.08
2023-09-07T02:44:16.793Z,14.15
2023-09-07T02:46:46.804Z,14.19
2023-09-07T02:49:16.673Z,14.22
2023-09-07T02:51:46.792Z,14.25
2023-09-07T02:54:17.847Z,14.26
2023-09-07T02:56:48.026Z,14.21
2023-09-07T02:59:17.899Z,14.17
2023-09-07T03:01:47.995Z,14.18
2023-09-07T03:04:18.721Z,14.16
2023-09-07T03:06:48.878Z,14.13
2023-09-07T03:09:20.131Z,14.18
2023-09-07T03:11:50.366Z,14.22
2023-09-07T03:14:20.326Z,14.17
2023-09-07T03:16:51.726Z,14.13
2023-09-07T03:19:21.810Z,14.17
2023-09-07T03:21:51.819Z,14.16
2023-09-07T03:24:22.996Z,14.21
2023-09-07T03:26:53.108Z,14.23
2023-09-07T03:29:22.923Z,14.26
2023-09-07T03:31:53.529Z,14.26
2023-09-07T03:34:23.517Z,14.24
2023-09-07T03:36:53.767Z,14.23
2023-09-07T03:39:25.001Z,14.26
2023-09-07T03:41:55.090Z,14.26
2023-09-07T03:44:26.426Z,14.26
2023-09-07T03:46:56.931Z,14.28
2023-09-07T03:49:26.955Z,14.27
2023-09-07T03:51:57.343Z,14.26
2023-09-07T03:54:28.920Z,14.26
2023-09-07T03:56:58.862Z,14.27
2023-09-07T03:59:30.161Z,14.28
2023-09-07T04:02:00.409Z,14.31
2023-09-07T04:04:30.639Z,14.32
2023-09-07T04:07:01.053Z,14.40
2023-09-07T04:09:32.425Z,14.41
2023-09-07T04:12:05.140Z,14.48
2023-09-07T04:14:35.044Z,14.49
2023-09-07T04:17:05.547Z,14.50
2023-09-07T04:19:35.679Z,14.53
2023-09-07T04:22:05.965Z,14.56
2023-09-07T04:24:37.614Z,14.55
2023-09-07T04:27:09.568Z,14.58
2023-09-07T04:29:40.038Z,14.60
2023-09-07T04:32:10.429Z,14.64
2023-09-07T04:34:40.201Z,14.63
2023-09-07T04:37:13.097Z,14.65
2023-09-07T04:39:44.921Z,14.68
2023-09-07T04:42:15.021Z,14.73
2023-09-07T04:44:44.873Z,14.75
2023-09-07T04:47:15.323Z,14.81
2023-09-07T04:49:51.295Z,14.82
2023-09-07T04:52:23.650Z,14.87
2023-09-07T04:54:54.837Z,14.94
2023-09-07T04:57:24.889Z,14.99
2023-09-07T04:59:54.814Z,15.10
2023-09-07T05:02:25.158Z,15.16
2023-09-07T05:04:55.048Z,15.25
2023-09-07T05:07:25.085Z,15.31
2023-09-07T05:09:56.780Z,15.33
2023-09-07T05:12:26.876Z,15.43
2023-09-07T05:14:56.633Z,15.52
2023-09-07T05:17:26.928Z,15.61
2023-09-07T05:19:56.963Z,15.74
2023-09-07T05:22:27.880Z,15.83
2023-09-07T05:25:02.276Z,15.88
2023-09-07T05:27:33.334Z,15.98
2023-09-07T05:30:03.208Z,15.99
2023-09-07T05:32:33.535Z,16.02
2023-09-07T05:35:04.285Z,16.07
2023-09-07T05:37:34.449Z,16.21
2023-09-07T05:40:06.342Z,16.26
2023-09-07T05:42:36.617Z,16.31
2023-09-07T05:45:06.803Z,16.37
2023-09-07T05:47:37.062Z,16.38
2023-09-07T05:50:07.548Z,16.43
2023-09-07T05:52:37.956Z,16.50
2023-09-07T05:55:10.115Z,16.56
2023-09-07T05:57:40.412Z,16.65
2023-09-07T06:00:11.049Z,16.77
2023-09-07T06:02:46.328Z,16.87
2023-09-07T06:05:16.846Z,16.95
2023-09-07T06:07:47.018Z,16.98
2023-09-07T06:10:20.745Z,17.02
2023-09-07T06:12:52.033Z,17.18
2023-09-07T06:15:22.764Z,17.23
2023-09-07T06:17:53.078Z,17.39
2023-09-07T06:20:23.053Z,17.43
2023-09-07T06:22:53.362Z,17.48
2023-09-07T06:25:24.892Z,17.53
2023-09-07T06:27:55.791Z,17.42
2023-09-07T06:30:25.430Z,17.55
2023-09-07T06:32:55.920Z,17.62
2023-09-07T06:35:26.289Z,17.93
2023-09-07T06:37:57.408Z,18.09
2023-09-07T06:40:31.370Z,18.26
2023-09-07T06:43:06.571Z,18.27
2023-09-07T06:45:37.309Z,18.44
2023-09-07T06:48:08.406Z,18.77
2023-09-07T06:50:38.606Z,18.83
2023-09-07T06:53:09.954Z,19.18
2023-09-07T06:55:42.641Z,19.56
2023-09-07T06:58:12.780Z,19.62
2023-09-07T07:00:42.762Z,19.80
2023-09-07T07:03:13.038Z,20.14
2023-09-07T07:05:43.800Z,20.19
2023-09-07T07:08:14.020Z,20.27
2023-09-07T07:10:45.175Z,20.14
2023-09-07T07:13:15.676Z,20.35
2023-09-07T07:15:45.405Z,20.61
2023-09-07T07:18:16.183Z,20.36
2023-09-07T07:20:46.762Z,20.15
2023-09-07T07:23:16.910Z,20.35
2023-09-07T07:25:49.211Z,20.50
2023-09-07T07:28:19.364Z,20.36
2023-09-07T07:30:49.582Z,20.23
2023-09-07T07:33:19.859Z,20.61
2023-09-07T07:35:50.252Z,20.65
2023-09-07T07:38:21.103Z,20.82
2023-09-07T07:40:54.453Z,20.87
2023-09-07T07:43:24.846Z,20.29
2023-09-07T07:45:56.674Z,20.52
2023-09-07T07:48:27.515Z,20.82
2023-09-07T07:50:57.338Z,21.17
2023-09-07T07:53:27.681Z,21.27
2023-09-07T07:56:00.043Z,21.58
2023-09-07T07:58:30.423Z,22.04
2023-09-07T08:01:00.381Z,22.27
2023-09-07T08:03:34.856Z,22.41
2023-09-07T08:06:05.436Z,23.23
2023-09-07T08:08:35.816Z,22.99
2023-09-07T08:11:07.401Z,22.55
2023-09-07T08:13:39.351Z,22.95
2023-09-07T08:16:12.555Z,22.87
2023-09-07T08:18:44.537Z,22.66
2023-09-07T08:21:17.058Z,22.80
2023-09-07T08:23:47.860Z,22.74
2023-09-07T08:26:21.694Z,22.78
2023-09-07T08:28:52.126Z,22.69
2023-09-07T08:31:23.715Z,22.60
2023-09-07T08:33:56.654Z,23.33
2023-09-07T08:36:29.638Z,23.68
2023-09-07T08:39:01.387Z,23.51
2023-09-07T08:41:40.577Z,23.74
2023-09-07T08:44:20.765Z,23.96
2023-09-07T08:46:51.991Z,24.05
2023-09-07T08:49:24.567Z,23.65
2023-09-07T08:51:54.455Z,24.01
2023-09-07T08:54:25.225Z,24.28
2023-09-07T08:56:58.529Z,24.70
2023-09-07T08:59:28.665Z,24.38
2023-09-07T09:02:01.605Z,24.65
2023-09-07T09:04:32.106Z,24.52
2023-09-07T09:07:04.554Z,24.17
2023-09-07T09:09:34.761Z,24.51
2023-09-07T09:12:12.917Z,24.56
2023-09-07T09:14:44.995Z,24.38
2023-09-07T09:17:15.527Z,24.12
2023-09-07T09:19:45.775Z,24.16
2023-09-07T09:22:15.568Z,24.16
2023-09-07T09:24:45.783Z,23.93
2023-09-07T09:27:17.028Z,24.23
2023-09-07T09:29:47.209Z,23.83
2023-09-07T09:32:18.727Z,23.38
2023-09-07T09:34:49.489Z,22.83
2023-09-07T09:37:20.607Z,23.00
2023-09-07T09:39:52.494Z,23.54
2023-09-07T09:42:24.080Z,23.93
2023-09-07T09:44:55.473Z,23.69
2023-09-07T09:47:25.725Z,23.24
2023-09-07T09:49:57.084Z,22.97
2023-09-07T09:52:28.161Z,22.85
2023-09-07T09:54:58.377Z,23.20
2023-09-07T09:57:31.613Z,23.22
2023-09-07T10:00:05.031Z,23.33
2023-09-07T10:02:42.904Z,23.00
2023-09-07T10:05:14.973Z,22.77
2023-09-07T10:07:45.285Z,22.94
2023-09-07T10:10:16.384Z,23.09
2023-09-07T10:12:48.447Z,23.23
2023-09-07T10:15:25.233Z,22.98
2023-09-07T10:18:05.547Z,22.82
2023-09-07T10:20:50.364Z,22.99
2023-09-07T10:23:20.116Z,23.15
2023-09-07T10:25:50.977Z,23.06
2023-09-07T10:28:23.108Z,22.84
2023-09-07T10:31:06.202Z,22.79
2023-09-07T10:33:36.930Z,22.75
2023-09-07T10:36:08.079Z,22.76
2023-09-07T10:38:39.567Z,23.00
2023-09-07T10:41:09.804Z,23.21
2023-09-07T10:43:49.247Z,23.24
2023-09-07T10:46:21.403Z,23.54
2023-09-07T10:48:52.189Z,23.79
2023-09-07T10:51:23.098Z,23.61
2023-09-07T10:53:52.933Z,23.33
2023-09-07T10:56:27.074Z,23.15
2023-09-07T10:59:00.552Z,23.06
2023-09-07T11:01:30.763Z,22.83
2023-09-07T11:04:00.702Z,22.63
2023-09-07T11:06:35.054Z,22.73
2023-09-07T11:09:06.256Z,23.01
2023-09-07T11:11:36.385Z,23.03
2023-09-07T11:14:08.089Z,23.32
2023-09-07T11:16:38.648Z,23.40
2023-09-07T11:19:09.638Z,23.38
2023-09-07T11:21:39.899Z,23.05
2023-09-07T11:24:11.066Z,22.86
2023-09-07T11:26:44.765Z,22.80
2023-09-07T11:29:17.933Z,22.84
2023-09-07T11:31:48.711Z,23.04
2023-09-07T11:34:18.522Z,23.18
2023-09-07T11:36:50.755Z,23.22
2023-09-07T11:39:21.026Z,23.49
2023-09-07T11:41:51.205Z,23.34
2023-09-07T11:44:22.495Z,23.35
2023-09-07T11:46:53.500Z,23.20
2023-09-07T11:49:23.888Z,23.33
2023-09-07T11:51:54.093Z,23.32
2023-09-07T11:54:24.470Z,23.43
2023-09-07T11:56:54.528Z,23.50
2023-09-07T11:59:25.756Z,23.41
2023-09-07T12:01:55.978Z,23.49
2023-09-07T12:04:25.886Z,23.51
2023-09-07T12:06:56.337Z,23.54
2023-09-07T12:09:26.248Z,23.51
2023-09-07T12:11:56.501Z,23.39
2023-09-07T12:14:27.728Z,23.39
2023-09-07T12:16:57.925Z,23.48
2023-09-07T12:19:27.792Z,23.17
2023-09-07T12:21:57.848Z,23.19
2023-09-07T12:24:27.739Z,23.17
2023-09-07T12:26:57.835Z,23.23
2023-09-07T12:29:29.332Z,23.43
2023-09-07T12:31:59.741Z,23.50
2023-09-07T12:34:32.336Z,23.60
2023-09-07T12:37:05.856Z,23.48
2023-09-07T12:39:35.954Z,23.33
2023-09-07T12:42:06.195Z,23.19
2023-09-07T12:44:37.418Z,23.39
2023-09-07T12:47:07.649Z,23.29
2023-09-07T12:49:37.605Z,23.41
2023-09-07T12:52:10.317Z,23.48
2023-09-07T12:54:40.552Z,23.28
2023-09-07T12:57:10.811Z,23.49
2023-09-07T12:59:42.042Z,23.98
2023-09-07T13:02:12.298Z,24.45
2023-09-07T13:04:42.140Z,24.19
2023-09-07T13:07:12.124Z,24.04
2023-09-07T13:09:41.906Z,24.58
2023-09-07T13:12:12.006Z,24.90
2023-09-07T13:14:43.419Z,25.70
2023-09-07T13:17:15.362Z,25.19
2023-09-07T13:19:45.323Z,24.18
2023-09-07T13:22:15.433Z,23.78
2023-09-07T13:24:45.192Z,23.62
2023-09-07T13:27:15.605Z,23.72
2023-09-07T13:29:46.929Z,23.72
2023-09-07T13:32:16.361Z,23.47
2023-09-07T13:34:46.145Z,23.45
2023-09-07T13:37:16.531Z,23.40
2023-09-07T13:39:46.366Z,23.35
2023-09-07T13:42:16.422Z,23.41
2023-09-07T13:44:48.904Z,23.43
2023-09-07T13:47:19.335Z,23.64
2023-09-07T13:49:49.249Z,23.71
2023-09-07T13:52:20.428Z,23.64
2023-09-07T13:54:50.108Z,23.62
2023-09-07T13:57:20.443Z,23.61
2023-09-07T13:59:52.685Z,23.43
2023-09-07T14:02:22.769Z,23.33
2023-09-07T14:04:52.697Z,23.49
2023-09-07T14:07:27.520Z,23.40
2023-09-07T14:10:00.068Z,23.16
2023-09-07T14:12:34.524Z,23.11
2023-09-07T14:15:10.709Z,23.15
2023-09-07T14:17:42.901Z,23.12
2023-09-07T14:20:15.991Z,23.15
2023-09-07T14:22:47.961Z,22.92
2023-09-07T14:25:20.497Z,22.86
2023-09-07T14:27:51.888Z,22.66
2023-09-07T14:30:23.538Z,22.71
2023-09-07T14:32:57.775Z,22.83
2023-09-07T14:35:32.285Z,22.83
2023-09-07T14:38:08.816Z,22.68
2023-09-07T14:40:42.636Z,22.80
2023-09-07T14:43:20.447Z,22.71
2023-09-07T14:45:51.994Z,22.64
2023-09-07T14:48:26.740Z,22.65
2023-09-07T14:50:57.116Z,22.58
2023-09-07T14:53:27.550Z,22.71
2023-09-07T14:55:59.096Z,22.75
2023-09-07T14:58:29.279Z,22.74
2023-09-07T15:01:00.893Z,22.60
2023-09-07T15:03:31.343Z,22.49
2023-09-07T15:06:01.884Z,22.51
2023-09-07T15:08:33.030Z,22.41
2023-09-07T15:11:03.234Z,22.44
2023-09-07T15:13:33.614Z,22.44
2023-09-07T15:16:05.993Z,22.38
2023-09-07T15:18:36.760Z,22.41
2023-09-07T15:21:06.767Z,22.35
2023-09-07T15:23:37.932Z,22.29
2023-09-07T15:26:07.892Z,22.30
2023-09-07T15:28:43.558Z,22.21
2023-09-07T15:31:17.516Z,22.19
2023-09-07T15:33:53.110Z,22.15
2023-09-07T15:36:27.076Z,22.08
2023-09-07T15:38:59.121Z,22.04
2023-09-07T15:41:29.341Z,22.02
2023-09-07T15:44:00.272Z,21.97
2023-09-07T15:46:34.024Z,21.97
2023-09-07T15:49:05.419Z,21.96
2023-09-07T15:51:35.435Z,21.93
2023-09-07T15:54:06.381Z,21.96
2023-09-07T15:56:36.860Z,21.89
2023-09-07T15:59:09.287Z,21.84
2023-09-07T16:01:40.842Z,21.78
2023-09-07T16:04:13.279Z,21.68
2023-09-07T16:06:43.746Z,21.62
2023-09-07T16:09:13.895Z,21.63
2023-09-07T16:11:44.512Z,21.57
2023-09-07T16:14:19.395Z,21.54
2023-09-07T16:16:51.439Z,21.54
2023-09-07T16:19:21.825Z,21.49
2023-09-07T16:21:51.687Z,21.42
2023-09-07T16:24:21.899Z,21.32
2023-09-07T16:26:51.922Z,21.23
2023-09-07T16:29:22.717Z,21.14
2023-09-07T16:31:54.126Z,21.09
2023-09-07T16:34:24.388Z,21.03
2023-09-07T16:36:55.116Z,20.98
2023-09-07T16:39:25.828Z,20.94
2023-09-07T16:41:55.728Z,20.87
2023-09-07T16:44:25.878Z,20.78
2023-09-07T16:46:57.137Z,20.70
2023-09-07T16:49:27.319Z,20.60
2023-09-07T16:51:57.064Z,20.56
2023-09-07T16:54:27.093Z,20.48
2023-09-07T16:56:58.863Z,20.45
2023-09-07T16:59:55.385Z,20.36
2023-09-07T17:02:21.649Z,20.27
2023-09-07T17:04:53.008Z,20.19
2023-09-07T17:07:24.411Z,20.09
2023-09-07T17:09:56.082Z,20.02
2023-09-07T17:12:27.842Z,19.96
2023-09-07T17:15:00.886Z,19.89
2023-09-07T17:17:32.888Z,19.84
2023-09-07T17:20:09.395Z,19.78
2023-09-07T17:22:39.047Z,19.69
2023-09-07T17:25:09.594Z,19.64
2023-09-07T17:27:39.292Z,19.60
2023-09-07T17:30:12.285Z,19.24
2023-09-07T17:32:44.033Z,19.41
2023-09-07T17:35:14.815Z,19.35
2023-09-07T17:37:44.553Z,19.27
2023-09-07T17:40:15.354Z,19.15
2023-09-07T17:42:45.475Z,19.07
2023-09-07T17:45:16.432Z,18.96
2023-09-07T17:47:48.198Z,18.85
2023-09-07T17:50:19.034Z,18.83
2023-09-07T17:52:48.843Z,18.71
2023-09-07T17:55:19.159Z,18.57
2023-09-07T17:57:49.309Z,18.48
2023-09-07T18:00:20.332Z,18.33
2023-09-07T18:02:53.011Z,18.09
2023-09-07T18:05:23.396Z,17.94
2023-09-07T18:07:54.964Z,17.80
2023-09-07T18:11:00.500Z,17.69
2023-09-07T18:13:43.418Z,17.51
2023-09-07T18:16:17.313Z,17.47
2023-09-07T18:18:49.008Z,17.41
2023-09-07T18:21:19.965Z,17.41
2023-09-07T18:23:53.885Z,17.39
2023-09-07T18:26:26.440Z,17.36
2023-09-07T18:28:59.110Z,17.39
2023-09-07T18:31:29.699Z,17.33
2023-09-07T18:34:02.685Z,17.31
2023-09-07T18:36:34.747Z,17.27
2023-09-07T18:39:05.004Z,17.21
2023-09-07T18:41:35.488Z,17.17
2023-09-07T18:44:05.239Z,17.08
2023-09-07T18:46:35.651Z,17.09
2023-09-07T18:49:06.956Z,17.03
2023-09-07T18:51:37.135Z,16.97
2023-09-07T18:54:06.909Z,16.91
2023-09-07T18:56:36.918Z,16.86
2023-09-07T18:59:08.673Z,16.79
2023-09-07T19:01:39.395Z,16.79
2023-09-07T19:04:14.297Z,16.74
2023-09-07T19:06:44.414Z,16.70
2023-09-07T19:09:14.340Z,16.67
2023-09-07T19:11:44.683Z,16.61
2023-09-07T19:14:14.320Z,16.54
2023-09-07T19:16:44.698Z,16.57
2023-09-07T19:19:28.463Z,16.56
2023-09-07T19:22:05.810Z,16.49
2023-09-07T19:24:35.599Z,16.52
2023-09-07T19:27:05.688Z,16.50
2023-09-07T19:29:35.552Z,16.48
2023-09-07T19:32:05.823Z,16.38
2023-09-07T19:34:37.175Z,16.34
2023-09-07T19:37:07.238Z,16.33
2023-09-07T19:39:38.184Z,16.30
2023-09-07T19:42:09.346Z,16.22
2023-09-07T19:44:39.541Z,16.16
2023-09-07T19:47:11.098Z,16.11
2023-09-07T19:49:43.081Z,16.00
2023-09-07T19:52:13.250Z,15.93
2023-09-07T19:54:43.226Z,15.87
2023-09-07T19:57:13.349Z,15.80
2023-09-07T19:59:43.377Z,15.77
2023-09-07T20:02:14.398Z,15.75
2023-09-07T20:04:45.730Z,15.72
2023-09-07T20:07:22.763Z,15.74
2023-09-07T20:09:56.894Z,15.65
2023-09-07T20:12:28.825Z,15.60
2023-09-07T20:15:01.011Z,15.59
2023-09-07T20:17:31.671Z,15.58
2023-09-07T20:20:04.111Z,15.62
2023-09-07T20:22:37.616Z,15.63
2023-09-07T20:25:07.880Z,15.65
2023-09-07T20:27:37.945Z,15.67
2023-09-07T20:30:08.457Z,15.69
2023-09-07T20:32:38.670Z,15.71
2023-09-07T20:35:10.905Z,15.66
2023-09-07T20:37:41.143Z,15.65
2023-09-07T20:40:13.813Z,15.63
2023-09-07T20:42:45.133Z,15.58
2023-09-07T20:45:15.074Z,15.58
2023-09-07T20:47:45.505Z,15.48
2023-09-07T20:50:17.198Z,15.39
2023-09-07T20:52:47.360Z,15.30
2023-09-07T20:55:17.256Z,15.26
2023-09-07T20:57:50.565Z,15.14
2023-09-07T21:00:20.515Z,15.11
2023-09-07T21:02:50.733Z,15.11
2023-09-07T21:05:22.379Z,15.06
2023-09-07T21:07:52.430Z,15.05
2023-09-07T21:10:23.070Z,15.06
2023-09-07T21:12:53.331Z,15.06
2023-09-07T21:19:30.192Z,15.03
2023-09-07T21:22:01.721Z,14.99
2023-09-07T21:24:32.228Z,14.96
2023-09-07T21:27:02.869Z,14.89
2023-09-07T21:29:32.949Z,14.86
2023-09-07T21:32:03.150Z,14.80
2023-09-07T21:34:33.564Z,14.72
2023-09-07T21:37:05.401Z,14.68
2023-09-07T21:39:36.525Z,14.66
2023-09-07T21:42:07.198Z,14.61
2023-09-07T21:44:37.549Z,14.62
2023-09-07T21:47:08.728Z,14.55
2023-09-07T21:49:38.584Z,14.57
2023-09-07T21:52:10.150Z,14.57
2023-09-07T21:54:40.041Z,14.54
2023-09-07T21:57:10.231Z,14.55
2023-09-07T21:59:40.042Z,14.52
2023-09-07T22:02:10.226Z,14.49
2023-09-07T22:04:40.169Z,14.46
2023-09-07T22:07:11.738Z,14.46
2023-09-07T22:09:41.719Z,14.44
2023-09-07T22:12:11.840Z,14.38
2023-09-07T22:14:41.649Z,14.37
2023-09-07T22:17:12.910Z,14.36
2023-09-07T22:19:42.790Z,14.35
2023-09-07T22:22:16.845Z,14.35
2023-09-07T22:24:46.583Z,14.34
2023-09-07T22:27:16.710Z,14.30
2023-09-07T22:29:46.486Z,14.25
2023-09-07T22:32:16.715Z,14.26
2023-09-07T22:34:48.202Z,14.25
2023-09-07T22:37:20.484Z,14.23
2023-09-07T22:39:51.669Z,14.22
2023-09-07T22:42:21.721Z,14.19
2023-09-07T22:44:51.487Z,14.09
2023-09-07T22:47:21.910Z,14.04
2023-09-07T22:49:51.701Z,13.95
2023-09-07T22:52:23.584Z,14.00
2023-09-07T22:54:53.308Z,13.95
2023-09-07T22:57:23.786Z,13.88
2023-09-07T22:59:54.139Z,13.93
2023-09-07T23:02:24.350Z,13.87
2023-09-07T23:04:55.326Z,13.79
2023-09-07T23:07:26.960Z,13.75
2023-09-07T23:09:56.789Z,13.77
2023-09-07T23:12:27.829Z,13.81
2023-09-07T23:14:58.761Z,13.74
2023-09-07T23:17:29.156Z,13.77
2023-09-07T23:19:59.082Z,13.80
2023-09-07T23:22:31.661Z,13.77
2023-09-07T23:25:01.389Z,13.75
2023-09-07T23:27:31.736Z,13.74
2023-09-07T23:30:02.890Z,13.70
2023-09-07T23:32:36.155Z,13.64
2023-09-07T23:35:06.668Z,13.67
2023-09-07T23:37:39.386Z,13.65
2023-09-07T23:40:10.700Z,13.65
2023-09-07T23:42:41.360Z,13.60
2023-09-07T23:45:11.633Z,13.60
2023-09-07T23:47:42.747Z,13.55
2023-09-07T23:50:12.904Z,13.53
2023-09-07T23:52:44.514Z,13.45
2023-09-07T23:55:14.817Z,13.42
2023-09-07T23:57:45.134Z,13.37
